Terminal Aerodrome Forecast
Issued by NWS

Home | Current Version | Previous Version | Text Only | Print | Product List | Glossary On
Versions: 1 2 3 4 5 6 7 8 9 10 11 12 13 14 15
835
FTUS45 KABQ 231725
TAFAEG
TAF
KAEG 231725Z 2318/2418 09011KT P6SM SCT060
     FM232200 10012KT P6SM VCTS BKN050CB
      TEMPO 2323/2402 VRB20G35KT 6SM -TSRA OVC050CB
     FM240200 10012KT P6SM VCSH BKN050
     FM240600 06007KT P6SM SCT070=

USA.gov is the U.S. government's official web portal to all federal, state and local government web resources and services.